Grand Canyon National Park Airport
KGCN : rendu visible

Aérodrome :











RETROUVEZ-NOUS SUR...

 
LOGIN :

S'inscrire | Disclaimer

   EN    FR    IT 

 









Légende :    VFR   VFR Marginal   IFR   IFR Intensif   IFR Très Intensif
Visi : 
Plafond : 
>= 8 km
>= 3000ft
5 à 8 km
1000 à 3000 ft
1500m à 5 km
500 à 1000 ft
800 à 1500m
200 à 500 ft
< 800m
< 200 ft
Symboles :   Orages  Brouillard  Fortes neiges  Fortes précipitations  Vent > 20 kt






- Altitude de l'aérodrome : 6609 ft
- Code IATA : GCN


KGCN - Grand Canyon National Park

DERNIER METAR :
  • 260754Z AUTO 00000KT 10SM CLR M04/M06 A3023 RMK AO2 SLP215 T10441061

METARs EXPIRÉS :
  • 260654Z AUTO 04003KT 10SM CLR M04/M06 A3024 RMK AO2 SLP221 T10441061 401171067
  • 260554Z AUTO 00000KT 10SM CLR M04/M06 A3023 RMK AO2 SLP221 T10391056 10100 21039 52009
  • 260454Z AUTO 00000KT 10SM CLR M03/M06 A3023 RMK AO2 SLP229 T10331056

TAF KGCN
Valide du 26 à 06h jusqu'au 27 à 06h UTC


260520Z 2606/2706 04003KT P6SM SCT250
FM261900 23010G20KT P6SM BKN250
FM270100 23006KT P6SM BKN250



MET'MAP, la Météo Aéronautique d'un coup d'oeil ! - Copyright ORBIFLY Décembre 2007 - Disclaimer

ORBIFLY MET'MAP TEAM :

Programmation & Développement : Alexandra Zaïnal
Sur une idée originale de : Baudouin d'Aumeries
Assistance à la programmation : Marc-Olivier Méhu
Soutien technique & logistique : Manuel Goepfert

Contact : metmap@orbifly.com




SOURCES & CREDITS :

   NOAA       Earth
Advisory